createdAt,value
2024-02-23T00:01:54.044Z,97506.63
2024-02-23T00:04:21.667Z,97497.34
2024-02-23T00:06:49.344Z,97500.88
2024-02-23T00:09:15.979Z,97491.91
2024-02-23T00:11:45.822Z,97508.00
2024-02-23T00:14:14.156Z,97508.00
2024-02-23T00:16:41.926Z,97513.44
2024-02-23T00:19:09.592Z,97524.06
2024-02-23T00:21:37.215Z,97532.00
2024-02-23T00:24:04.914Z,97551.91
2024-02-23T00:26:32.537Z,97569.34
2024-02-23T00:29:00.167Z,97567.22
2024-02-23T00:31:27.875Z,97560.06
2024-02-23T00:33:55.446Z,97562.59
2024-02-23T00:36:23.017Z,97585.69
2024-02-23T00:38:50.584Z,97595.78
2024-02-23T00:41:18.170Z,97587.84
2024-02-23T00:43:45.800Z,97591.97
2024-02-23T00:46:15.428Z,97597.41
2024-02-23T00:48:44.169Z,97609.97
2024-02-23T00:51:11.774Z,97614.59
2024-02-23T00:53:39.341Z,97618.41
2024-02-23T00:56:06.942Z,97616.75
2024-02-23T00:58:34.613Z,97626.84
2024-02-23T01:01:02.292Z,97633.09
2024-02-23T01:03:30.068Z,97618.94
2024-02-23T01:05:57.777Z,97614.53
2024-02-23T01:08:25.456Z,97613.47
2024-02-23T01:10:53.148Z,97624.38
2024-02-23T01:13:20.758Z,97636.34
2024-02-23T01:15:48.381Z,97653.28
2024-02-23T01:18:15.998Z,97664.19
2024-02-23T01:20:43.598Z,97674.25
2024-02-23T01:23:11.174Z,97687.06
2024-02-23T01:25:38.751Z,97706.16
2024-02-23T01:28:06.415Z,97738.88
2024-02-23T01:30:33.996Z,97735.03
2024-02-23T01:33:01.827Z,97739.69
2024-02-23T01:35:30.295Z,97747.28
2024-02-23T01:37:57.895Z,97741.25
2024-02-23T01:40:25.602Z,97736.06
2024-02-23T01:42:53.160Z,97770.66
2024-02-23T01:45:20.822Z,97777.50
2024-02-23T01:47:48.372Z,97783.81
2024-02-23T01:50:16.688Z,97777.50
2024-02-23T01:52:44.349Z,97791.97
2024-02-23T01:55:11.916Z,97787.59
2024-02-23T01:57:49.519Z,97791.41
2024-02-23T02:00:18.165Z,97803.94
2024-02-23T02:02:45.769Z,97801.50
2024-02-23T02:05:13.573Z,97800.66
2024-02-23T02:07:41.155Z,97818.66
2024-02-23T02:10:08.815Z,97807.75
2024-02-23T02:12:36.369Z,97814.03
2024-02-23T02:15:03.937Z,97818.38
2024-02-23T02:17:34.164Z,97828.47
2024-02-23T02:20:05.401Z,97842.91
2024-02-23T02:22:33.070Z,97859.28
2024-02-23T02:25:00.651Z,97876.13
2024-02-23T02:27:28.301Z,97871.25
2024-02-23T02:29:55.881Z,97891.97
2024-02-23T02:32:23.480Z,97889.75
2024-02-23T02:34:51.154Z,97891.91
2024-02-23T02:37:18.751Z,97920.25
2024-02-23T02:39:46.297Z,97913.16
2024-02-23T02:42:13.885Z,97911.25
2024-02-23T02:44:41.510Z,97911.25
2024-02-23T02:47:09.221Z,97920.75
2024-02-23T02:49:36.834Z,97928.94
2024-02-23T02:52:04.505Z,97933.56
2024-02-23T02:54:32.190Z,97942.56
2024-02-23T02:56:59.849Z,97957.28
2024-02-23T02:59:28.734Z,97960.81
2024-02-23T03:01:58.329Z,97958.09
2024-02-23T03:04:26.029Z,97967.84
2024-02-23T03:06:53.670Z,97961.31
2024-02-23T03:09:21.243Z,97956.34
2024-02-23T03:11:49.077Z,97987.19
2024-02-23T03:14:19.371Z,97979.22
2024-02-23T03:16:48.834Z,97981.72
2024-02-23T03:19:16.867Z,98000.03
2024-02-23T03:21:44.466Z,97995.44
2024-02-23T03:24:12.093Z,98009.88
2024-02-23T03:26:40.043Z,98018.28
2024-02-23T03:29:07.731Z,98022.34
2024-02-23T03:31:35.317Z,98048.75
2024-02-23T03:34:02.914Z,98036.78
2024-02-23T03:36:30.511Z,98044.41
2024-02-23T03:38:58.413Z,98047.34
2024-02-23T03:41:26.114Z,98046.28
2024-02-23T03:43:53.834Z,98047.59
2024-02-23T03:46:22.470Z,98049.25
2024-02-23T03:48:50.545Z,98047.59
2024-02-23T03:51:18.169Z,98057.69
2024-02-23T03:53:45.789Z,98059.00
2024-02-23T03:56:13.416Z,98063.38
2024-02-23T03:58:41.054Z,98066.94
2024-02-23T04:01:08.663Z,98084.59
2024-02-23T04:03:36.631Z,98069.31
2024-02-23T04:06:04.342Z,98083.19
2024-02-23T04:08:32.624Z,98092.19
2024-02-23T04:11:00.376Z,98106.31
2024-02-23T04:13:27.974Z,98110.66
2024-02-23T04:15:55.601Z,98135.47
2024-02-23T04:18:23.281Z,98132.47
2024-02-23T04:20:50.843Z,98140.06
2024-02-23T04:23:18.500Z,98145.19
2024-02-23T04:25:46.087Z,98150.38
2024-02-23T04:28:13.760Z,98146.00
2024-02-23T04:30:41.329Z,98145.19
2024-02-23T04:33:08.990Z,98162.84
2024-02-23T04:35:38.035Z,98166.63
2024-02-23T04:38:05.769Z,98163.09
2024-02-23T04:40:33.453Z,98156.78
2024-02-23T04:43:01.324Z,98155.97
2024-02-23T04:45:28.946Z,98162.72
2024-02-23T04:47:56.584Z,98161.69
2024-02-23T04:50:24.490Z,98168.44
2024-02-23T04:52:52.264Z,98183.38
2024-02-23T04:55:19.918Z,98190.47
2024-02-23T04:57:47.467Z,98204.09
2024-02-23T05:00:15.045Z,98202.66
2024-02-23T05:02:42.617Z,98210.03
2024-02-23T05:05:10.261Z,98219.84
2024-02-23T05:07:38.092Z,98226.38
2024-02-23T05:10:06.032Z,98215.09
2024-02-23T05:12:33.630Z,98227.66
2024-02-23T05:15:01.262Z,98220.31
2024-02-23T05:17:28.927Z,98203.16
2024-02-23T05:19:56.660Z,98219.84
2024-02-23T05:22:24.220Z,98225.06
2024-02-23T05:24:51.785Z,98249.91
2024-02-23T05:27:19.380Z,98250.72
2024-02-23T05:29:46.929Z,98261.41
2024-02-23T05:32:14.616Z,98237.97
2024-02-23T05:34:42.277Z,98249.69
2024-02-23T05:37:09.900Z,98275.25
2024-02-23T05:39:38.549Z,98291.59
2024-02-23T05:42:06.098Z,98289.47
2024-02-23T05:44:33.730Z,98294.69
2024-02-23T05:47:01.358Z,98289.47
2024-02-23T05:49:29.013Z,98294.56
2024-02-23T05:51:57.209Z,98306.63
2024-02-23T05:54:24.783Z,98300.63
2024-02-23T05:56:52.334Z,98303.78
2024-02-23T05:59:19.957Z,98294.56
2024-02-23T06:01:47.492Z,98298.00
2024-02-23T06:04:15.062Z,98313.75
2024-02-23T06:06:42.795Z,98322.53
2024-02-23T06:09:10.916Z,98331.28
2024-02-23T06:11:38.707Z,98318.97
2024-02-23T06:14:06.433Z,98326.56
2024-02-23T06:16:34.004Z,98356.75
2024-02-23T06:19:01.814Z,98358.03
2024-02-23T06:21:29.400Z,98348.22
2024-02-23T06:23:56.976Z,98339.72
2024-02-23T06:26:24.583Z,98351.44
2024-02-23T06:28:52.333Z,98367.38
2024-02-23T06:31:20.014Z,98369.28
2024-02-23T06:33:50.127Z,98373.09
2024-02-23T06:36:18.002Z,98385.06
2024-02-23T06:38:45.594Z,98383.38
2024-02-23T06:41:13.238Z,98384.00
2024-02-23T06:43:40.833Z,98390.84
2024-02-23T06:46:08.469Z,98385.06
2024-02-23T06:48:36.245Z,98390.50
2024-02-23T06:51:04.399Z,98390.97
2024-02-23T06:53:32.020Z,98396.88
2024-02-23T06:56:00.253Z,98409.44
2024-02-23T06:58:27.959Z,98399.38
2024-02-23T07:00:55.565Z,98389.31
2024-02-23T07:03:23.203Z,98382.56
2024-02-23T07:05:51.621Z,98388.84
2024-02-23T07:08:19.480Z,98395.97
2024-02-23T07:10:47.283Z,98398.69
2024-02-23T07:13:14.861Z,98384.00
2024-02-23T07:15:42.443Z,98411.22
2024-02-23T07:18:10.385Z,98423.19
2024-02-23T07:20:38.347Z,98431.09
2024-02-23T07:23:06.357Z,98418.31
2024-02-23T07:25:33.998Z,98420.69
2024-02-23T07:28:01.560Z,98435.13
2024-02-23T07:30:29.113Z,98458.22
2024-02-23T07:32:56.797Z,98449.69
2024-02-23T07:35:24.428Z,98445.66
2024-02-23T07:37:52.087Z,98464.25
2024-02-23T07:40:22.414Z,98480.38
2024-02-23T07:42:50.407Z,98481.69
2024-02-23T07:45:18.029Z,98491.72
2024-02-23T07:47:45.658Z,98501.31
2024-02-23T07:50:14.082Z,98515.78
2024-02-23T07:52:42.041Z,98508.66
2024-02-23T07:55:09.685Z,98507.63
2024-02-23T07:57:37.747Z,98499.44
2024-02-23T08:00:05.595Z,98498.59
2024-02-23T08:02:33.284Z,98493.75
2024-02-23T08:05:02.126Z,98499.44
2024-02-23T08:07:31.892Z,98496.25
2024-02-23T08:09:59.554Z,98514.25
2024-02-23T08:12:27.252Z,98514.03
2024-02-23T08:14:55.237Z,98528.47
2024-02-23T08:17:22.916Z,98513.16
2024-02-23T08:19:50.568Z,98518.63
2024-02-23T08:22:18.215Z,98515.66
2024-02-23T08:24:46.063Z,98515.06
2024-02-23T08:27:13.815Z,98512.13
2024-02-23T08:29:42.573Z,98517.31
2024-02-23T08:32:10.278Z,98512.72
2024-02-23T08:34:37.875Z,98515.44
2024-02-23T08:37:05.452Z,98503.47
2024-02-23T08:39:33.061Z,98503.84
2024-02-23T08:42:00.621Z,98511.78
2024-02-23T08:44:28.293Z,98508.59
2024-02-23T08:46:55.854Z,98512.13
2024-02-23T08:49:23.549Z,98514.28
2024-02-23T08:54:18.752Z,98511.56
2024-02-23T08:56:47.287Z,98522.22
2024-02-23T09:01:42.484Z,98532.28
2024-02-23T09:04:10.075Z,98533.94
2024-02-23T09:06:39.598Z,98544.38
2024-02-23T09:09:07.904Z,98563.47
2024-02-23T09:11:35.707Z,98577.91
2024-02-23T09:14:03.401Z,98572.91
2024-02-23T09:16:30.971Z,98572.44
2024-02-23T09:18:58.552Z,98565.31
2024-02-23T09:21:26.121Z,98554.44
2024-02-23T09:23:53.690Z,98553.59
2024-02-23T09:26:22.228Z,98560.13
2024-02-23T09:28:49.826Z,98568.91
2024-02-23T09:31:17.402Z,98565.31
2024-02-23T09:33:45.417Z,98561.56
2024-02-23T09:36:13.046Z,98558.22
2024-02-23T09:38:40.695Z,98553.59
2024-02-23T09:41:08.298Z,98557.16
2024-02-23T09:43:35.904Z,98553.00
2024-02-23T09:46:03.477Z,98566.19
2024-02-23T09:48:34.897Z,98560.47
2024-02-23T09:51:02.590Z,98557.28
2024-02-23T09:53:30.610Z,98562.16
2024-02-23T09:55:58.462Z,98558.00
2024-02-23T09:58:27.768Z,98562.38
2024-02-23T10:00:55.386Z,98552.31
2024-02-23T10:03:27.619Z,98558.56
2024-02-23T10:05:55.309Z,98577.22
2024-02-23T10:08:23.109Z,98585.75
2024-02-23T10:10:51.557Z,98584.19
2024-02-23T10:13:19.202Z,98581.47
2024-02-23T10:16:00.195Z,98577.09
2024-02-23T10:18:34.338Z,98578.16
2024-02-23T10:21:02.104Z,98579.81
2024-02-23T10:23:35.253Z,98590.94
2024-02-23T10:26:04.829Z,98594.88
2024-02-23T10:28:32.372Z,98595.69
2024-02-23T10:31:02.650Z,98590.50
2024-02-23T10:33:30.286Z,98598.06
2024-02-23T10:35:58.362Z,98593.66
2024-02-23T10:38:26.136Z,98594.53
2024-02-23T10:40:53.805Z,98599.72
2024-02-23T10:43:21.422Z,98608.72
2024-02-23T10:45:49.047Z,98610.16
2024-02-23T10:48:17.049Z,98609.09
2024-02-23T10:50:45.382Z,98608.03
2024-02-23T10:53:13.038Z,98608.84
2024-02-23T10:55:40.618Z,98610.53
2024-02-23T10:58:08.968Z,98607.19
2024-02-23T11:00:36.660Z,98618.09
2024-02-23T11:03:04.599Z,98618.56
2024-02-23T11:05:32.369Z,98617.50
2024-02-23T11:08:00.135Z,98627.09
2024-02-23T11:10:29.194Z,98619.75
2024-02-23T11:12:56.953Z,98627.72
2024-02-23T11:15:24.491Z,98632.94
2024-02-23T11:17:52.258Z,98630.22
2024-02-23T11:20:30.039Z,98627.50
2024-02-23T11:22:59.420Z,98625.81
2024-02-23T11:25:27.466Z,98633.38
2024-02-23T11:27:55.094Z,98633.63
2024-02-23T11:30:22.698Z,98637.78
2024-02-23T11:32:52.789Z,98634.81
2024-02-23T11:35:20.786Z,98633.97
2024-02-23T11:37:48.382Z,98636.72
2024-02-23T11:40:16.013Z,98643.84
2024-02-23T11:42:44.371Z,98630.44
2024-02-23T11:45:12.488Z,98632.09
2024-02-23T11:47:40.278Z,98620.34
2024-02-23T11:50:08.085Z,98623.09
2024-02-23T11:52:35.712Z,98621.56
2024-02-23T11:55:03.577Z,98615.50
2024-02-23T11:57:39.489Z,98623.69
2024-02-23T12:00:11.730Z,98623.69
2024-02-23T12:02:39.380Z,98627.25
2024-02-23T12:05:08.171Z,98632.94
2024-02-23T12:07:36.052Z,98634.59
2024-02-23T12:10:04.607Z,98629.13
2024-02-23T12:12:32.207Z,98636.03
2024-02-23T12:15:00.185Z,98635.41
2024-02-23T12:17:28.799Z,98630.22
2024-02-23T12:19:56.606Z,98629.59
2024-02-23T12:22:24.228Z,98635.06
2024-02-23T12:24:51.830Z,98626.28
2024-02-23T12:27:19.707Z,98627.50
2024-02-23T12:29:47.265Z,98623.69
2024-02-23T12:32:14.874Z,98624.50
2024-02-23T12:34:42.503Z,98627.03
2024-02-23T12:37:10.088Z,98627.03
2024-02-23T12:39:37.698Z,98620.75
2024-02-23T12:42:05.301Z,98627.84
2024-02-23T12:44:32.904Z,98627.03
2024-02-23T12:47:00.548Z,98634.13
2024-02-23T12:49:28.217Z,98630.34
2024-02-23T12:51:55.834Z,98629.50
2024-02-23T12:54:23.385Z,98627.84
2024-02-23T12:56:51.035Z,98620.75
2024-02-23T12:59:19.378Z,98627.25
2024-02-23T13:01:49.377Z,98624.50
2024-02-23T13:04:19.034Z,98634.59
2024-02-23T13:06:46.711Z,98626.19
2024-02-23T13:09:15.768Z,98634.13
2024-02-23T13:11:43.548Z,98633.50
2024-02-23T13:14:11.501Z,98639.22
2024-02-23T13:16:39.110Z,98640.41
2024-02-23T13:19:06.770Z,98629.50
2024-02-23T13:21:34.651Z,98637.66
2024-02-23T13:24:02.218Z,98631.41
2024-02-23T13:26:29.802Z,98639.56
2024-02-23T13:28:58.635Z,98627.63
2024-02-23T13:31:26.235Z,98627.63
2024-02-23T13:33:54.005Z,98623.47
2024-02-23T13:36:21.645Z,98616.59
2024-02-23T13:38:49.250Z,98617.63
2024-02-23T13:41:16.938Z,98625.81
2024-02-23T13:43:45.014Z,98627.25
2024-02-23T13:46:12.602Z,98618.25
2024-02-23T13:48:40.225Z,98617.63
2024-02-23T13:51:07.934Z,98628.53
2024-02-23T13:53:37.408Z,98625.19
2024-02-23T13:56:05.188Z,98635.28
2024-02-23T13:58:33.577Z,98636.09
2024-02-23T14:01:01.201Z,98634.25
2024-02-23T14:03:29.085Z,98635.06
2024-02-23T14:05:56.749Z,98641.13
2024-02-23T14:08:24.549Z,98634.59
2024-02-23T14:10:52.160Z,98630.78
2024-02-23T14:13:19.718Z,98631.88
2024-02-23T14:15:47.476Z,98637.53
2024-02-23T14:18:15.087Z,98631.72
2024-02-23T14:20:42.696Z,98630.91
2024-02-23T14:23:10.338Z,98637.19
2024-02-23T14:25:37.933Z,98637.41
2024-02-23T14:28:05.525Z,98645.56
2024-02-23T14:30:33.086Z,98645.56
2024-02-23T14:33:00.766Z,98644.75
2024-02-23T14:35:28.360Z,98648.91
2024-02-23T14:37:56.086Z,98664.44
2024-02-23T14:40:23.765Z,98665.50
2024-02-23T14:42:51.312Z,98666.09
2024-02-23T14:45:18.882Z,98663.81
2024-02-23T14:47:46.849Z,98650.19
2024-02-23T14:50:14.716Z,98662.19
2024-02-23T14:52:42.497Z,98661.94
2024-02-23T14:55:12.568Z,98663.00
2024-02-23T14:57:40.348Z,98667.63
2024-02-23T15:00:08.044Z,98661.09
2024-02-23T15:02:35.692Z,98668.66
2024-02-23T15:05:03.741Z,98663.47
2024-02-23T15:07:31.365Z,98668.66
2024-02-23T15:09:58.949Z,98667.03
2024-02-23T15:12:29.148Z,98670.34
2024-02-23T15:14:56.746Z,98665.94
2024-02-23T15:17:24.367Z,98667.84
2024-02-23T15:19:52.006Z,98667.03
2024-02-23T15:22:20.792Z,98655.91
2024-02-23T15:24:50.537Z,98656.72
2024-02-23T15:27:18.159Z,98658.84
2024-02-23T15:29:45.741Z,98652.78
2024-02-23T15:32:13.297Z,98655.28
2024-02-23T15:34:40.909Z,98647.13
2024-02-23T15:37:08.683Z,98640.00
2024-02-23T15:39:36.264Z,98637.50
2024-02-23T15:42:04.242Z,98628.72
2024-02-23T15:44:32.027Z,98626.47
2024-02-23T15:46:59.660Z,98621.25
2024-02-23T15:49:44.819Z,98630.28
2024-02-23T15:52:14.973Z,98630.72
2024-02-23T15:54:42.867Z,98640.78
2024-02-23T15:57:10.789Z,98668.28
2024-02-23T15:59:39.010Z,98667.88
2024-02-23T16:02:07.981Z,98679.03
2024-02-23T16:04:35.638Z,98691.34
2024-02-23T16:07:03.313Z,98686.13
2024-02-23T16:09:31.524Z,98678.56
2024-02-23T16:11:59.568Z,98674.41
2024-02-23T16:14:27.520Z,98667.53
2024-02-23T16:16:55.619Z,98670.25
2024-02-23T16:19:23.846Z,98674.00
2024-02-23T16:21:51.668Z,98675.53
2024-02-23T16:24:19.325Z,98692.94
2024-02-23T16:26:47.144Z,98703.25
2024-02-23T16:29:14.798Z,98712.25
2024-02-23T16:31:42.405Z,98711.41
2024-02-23T16:34:10.043Z,98700.53
2024-02-23T16:36:37.645Z,98697.81
2024-02-23T16:39:08.589Z,98690.47
2024-02-23T16:41:36.403Z,98683.72
2024-02-23T16:44:05.094Z,98691.66
2024-02-23T16:46:32.704Z,98683.72
2024-02-23T16:49:05.244Z,98682.19
2024-02-23T16:51:32.851Z,98675.22
2024-02-23T16:54:00.576Z,98664.81
2024-02-23T16:56:28.492Z,98673.19
2024-02-23T16:58:56.200Z,98670.25
2024-02-23T17:01:23.843Z,98668.13
2024-02-23T17:03:51.614Z,98674.25
2024-02-23T17:06:19.388Z,98671.75
2024-02-23T17:08:48.890Z,98671.59
2024-02-23T17:11:16.778Z,98671.59
2024-02-23T17:13:45.223Z,98666.56
2024-02-23T17:16:13.062Z,98679.19
2024-02-23T17:18:40.613Z,98673.50
2024-02-23T17:21:08.383Z,98675.41
2024-02-23T17:23:36.046Z,98675.53
2024-02-23T17:26:05.659Z,98675.09
2024-02-23T17:28:35.011Z,98678.50
2024-02-23T17:31:02.623Z,98675.53
2024-02-23T17:33:30.371Z,98683.72
2024-02-23T17:35:58.061Z,98697.56
2024-02-23T17:38:25.648Z,98692.34
2024-02-23T17:40:54.373Z,98686.50
2024-02-23T17:43:22.912Z,98687.94
2024-02-23T17:45:50.571Z,98696.72
2024-02-23T17:48:18.241Z,98695.06
2024-02-23T17:50:46.063Z,98696.38
2024-02-23T17:53:14.016Z,98703.09
2024-02-23T17:55:41.635Z,98696.22
2024-02-23T17:58:15.960Z,98695.97
2024-02-23T18:00:47.531Z,98695.16
2024-02-23T18:03:15.920Z,98702.69
2024-02-23T18:05:44.007Z,98692.06
2024-02-23T18:08:12.270Z,98712.41
2024-02-23T18:10:40.037Z,98706.56
2024-02-23T18:13:07.696Z,98696.53
2024-02-23T18:15:35.290Z,98705.69
2024-02-23T18:18:03.109Z,98697.38
2024-02-23T18:20:30.846Z,98704.94
2024-02-23T18:22:58.712Z,98708.53
2024-02-23T18:25:26.302Z,98714.53
2024-02-23T18:27:53.994Z,98714.53
2024-02-23T18:30:21.720Z,98714.53
2024-02-23T18:32:49.361Z,98715.00
2024-02-23T18:35:17.000Z,98718.78
2024-02-23T18:37:47.149Z,98712.72
2024-02-23T18:40:15.779Z,98707.06
2024-02-23T18:42:43.357Z,98704.56
2024-02-23T18:45:10.994Z,98692.03
2024-02-23T18:47:38.767Z,98683.00
2024-02-23T18:50:06.546Z,98702.91
2024-02-23T18:52:34.317Z,98704.56
2024-02-23T18:55:02.142Z,98695.34
2024-02-23T18:57:30.462Z,98697.22
2024-02-23T18:59:58.227Z,98700.19
2024-02-23T19:02:25.840Z,98702.22
2024-02-23T19:04:53.492Z,98705.34
2024-02-23T19:07:21.054Z,98704.25
2024-02-23T19:09:48.675Z,98703.22
2024-02-23T19:12:16.327Z,98709.28
2024-02-23T19:14:44.113Z,98710.78
2024-02-23T19:17:12.933Z,98705.78
2024-02-23T19:19:40.553Z,98697.63
2024-02-23T19:22:08.148Z,98698.81
2024-02-23T19:24:35.778Z,98683.41
2024-02-23T19:27:03.420Z,98677.34
2024-02-23T19:29:31.020Z,98680.53
2024-02-23T19:31:58.924Z,98694.50
2024-02-23T19:34:26.604Z,98697.47
2024-02-23T19:36:55.324Z,98708.56
2024-02-23T19:39:23.270Z,98708.81
2024-02-23T19:41:50.888Z,98720.13
2024-02-23T19:44:18.544Z,98722.28
2024-02-23T19:46:46.912Z,98731.47
2024-02-23T19:49:14.825Z,98734.44
2024-02-23T19:51:42.492Z,98747.19
2024-02-23T19:54:10.039Z,98752.63
2024-02-23T19:56:37.691Z,98752.88
2024-02-23T19:59:06.566Z,98759.59
2024-02-23T20:01:34.132Z,98758.53
2024-02-23T20:04:02.108Z,98760.63
2024-02-23T20:06:29.713Z,98748.72
2024-02-23T20:08:59.738Z,98741.16
2024-02-23T20:11:27.456Z,98757.25
2024-02-23T20:13:55.153Z,98755.34
2024-02-23T20:16:24.350Z,98740.31
2024-02-23T20:18:52.103Z,98743.50
2024-02-23T20:21:19.705Z,98746.44
2024-02-23T20:23:47.426Z,98737.66
2024-02-23T20:26:15.287Z,98724.28
2024-02-23T20:28:42.894Z,98721.09
2024-02-23T20:31:10.451Z,98729.50
2024-02-23T20:33:38.323Z,98730.53
2024-02-23T20:36:06.084Z,98720.94
2024-02-23T20:38:33.679Z,98714.28
2024-02-23T20:41:01.513Z,98714.06
2024-02-23T20:43:29.357Z,98719.50
2024-02-23T20:45:58.025Z,98714.91
2024-02-23T20:48:25.923Z,98725.34
2024-02-23T20:50:53.614Z,98715.94
2024-02-23T20:53:21.234Z,98724.94
2024-02-23T20:55:51.151Z,98727.06
2024-02-23T20:58:18.999Z,98733.56
2024-02-23T21:00:48.692Z,98735.91
2024-02-23T21:03:16.340Z,98742.16
2024-02-23T21:05:43.996Z,98742.63
2024-02-23T21:08:12.431Z,98745.97
2024-02-23T21:10:40.137Z,98754.34
2024-02-23T21:13:07.708Z,98756.44
2024-02-23T21:15:35.343Z,98751.00
2024-02-23T21:18:03.112Z,98750.78
2024-02-23T21:20:34.098Z,98751.84
2024-02-23T21:23:01.806Z,98749.56
2024-02-23T21:25:29.530Z,98749.56
2024-02-23T21:27:57.134Z,98755.00
2024-02-23T21:30:24.869Z,98747.69
2024-02-23T21:32:52.612Z,98747.91
2024-02-23T21:35:21.232Z,98757.13
2024-02-23T21:37:48.855Z,98756.50
2024-02-23T21:40:17.448Z,98755.06
2024-02-23T21:42:45.531Z,98754.81
2024-02-23T21:45:13.093Z,98741.22
2024-02-23T21:47:40.713Z,98741.47
2024-02-23T21:50:09.471Z,98736.03
2024-02-23T21:52:38.380Z,98736.03
2024-02-23T21:55:06.240Z,98735.19
2024-02-23T21:57:33.848Z,98729.97
2024-02-23T22:00:01.406Z,98728.69
2024-02-23T22:02:30.327Z,98731.63
2024-02-23T22:04:58.405Z,98726.41
2024-02-23T22:07:26.027Z,98726.41
2024-02-23T22:09:56.671Z,98730.41
2024-02-23T22:12:24.282Z,98729.13
2024-02-23T22:14:52.225Z,98731.63
2024-02-23T22:17:19.829Z,98733.97
2024-02-23T22:19:48.524Z,98721.19
2024-02-23T22:22:16.094Z,98724.16
2024-02-23T22:24:43.798Z,98720.34
2024-02-23T22:27:11.370Z,98715.97
2024-02-23T22:29:38.995Z,98708.84
2024-02-23T22:32:07.066Z,98713.69
2024-02-23T22:34:34.852Z,98709.31
2024-02-23T22:37:02.718Z,98716.41
2024-02-23T22:39:30.280Z,98708.69
2024-02-23T22:41:57.944Z,98709.38
2024-02-23T22:44:25.657Z,98709.38
2024-02-23T22:46:55.646Z,98703.94
2024-02-23T22:49:23.466Z,98710.22
2024-02-23T22:51:51.043Z,98702.66
2024-02-23T22:54:18.807Z,98707.50
2024-02-23T22:56:46.396Z,98702.25
2024-02-23T22:59:14.089Z,98708.53
2024-02-23T23:01:41.735Z,98710.66
2024-02-23T23:04:09.315Z,98719.41
2024-02-23T23:06:37.446Z,98720.69
2024-02-23T23:09:09.677Z,98726.53
2024-02-23T23:11:38.003Z,98723.81
2024-02-23T23:14:05.832Z,98726.97
2024-02-23T23:16:33.497Z,98722.81
2024-02-23T23:19:01.131Z,98723.84
2024-02-23T23:21:30.246Z,98724.66
2024-02-23T23:23:57.803Z,98737.69
2024-02-23T23:26:25.475Z,98734.97
2024-02-23T23:28:53.033Z,98743.94
2024-02-23T23:31:20.604Z,98741.22
2024-02-23T23:33:48.221Z,98740.81
2024-02-23T23:36:15.880Z,98736.00
2024-02-23T23:38:43.960Z,98734.56
2024-02-23T23:41:11.624Z,98739.78
2024-02-23T23:43:39.218Z,98739.16
2024-02-23T23:46:06.815Z,98738.34
2024-02-23T23:48:34.421Z,98742.72
2024-02-23T23:51:02.253Z,98736.25
2024-02-23T23:53:30.043Z,98737.47
2024-02-23T23:55:57.650Z,98732.91
2024-02-23T23:58:25.222Z,98742.06
